Time;durP1;ratioP1;P1;durP2;ratioP2;P2;SDS_P1;SDS_P2;PMS_P1;PMS_P2;Temp;Humidity;BMP_temperature;BMP_pressure;BME280_temperature;BME280_humidity;BME280_pressure;Samples;Min_cycle;Max_cycle;Signal;HPM_P1;HPM_P2
2023/12/14 00:01:13;;;;;;;1.93;1.10;;;6.70;67.80;;;;;;4949605;28;46454;-69
2023/12/14 00:03:40;;;;;;;1.47;0.93;;;6.70;68.20;;;;;;4949707;28;47078;-69
2023/12/14 00:06:07;;;;;;;1.33;0.73;;;6.60;68.30;;;;;;4953903;28;46534;-69
2023/12/14 00:08:33;;;;;;;2.17;0.90;;;6.50;68.40;;;;;;4951044;28;46651;-69
2023/12/14 00:11:04;;;;;;;1.40;0.87;;;6.50;68.60;;;;;;4951414;28;46468;-70
2023/12/14 00:13:29;;;;;;;1.87;1.00;;;6.50;68.60;;;;;;4949960;28;47248;-69
2023/12/14 00:15:55;;;;;;;1.30;0.90;;;6.50;69.70;;;;;;4949134;28;46676;-70
2023/12/14 00:18:20;;;;;;;3.63;1.30;;;6.50;68.30;;;;;;4949305;28;46524;-70
2023/12/14 00:20:46;;;;;;;1.67;0.83;;;6.60;68.00;;;;;;4952049;28;46016;-70
2023/12/14 00:23:13;;;;;;;3.00;0.97;;;6.60;67.80;;;;;;4951663;28;47126;-69
2023/12/14 00:25:39;;;;;;;1.70;0.90;;;6.70;67.60;;;;;;4953394;28;45898;-70
2023/12/14 00:28:04;;;;;;;1.73;1.00;;;6.80;67.30;;;;;;4950506;28;46471;-69
2023/12/14 00:30:30;;;;;;;3.43;1.07;;;6.80;67.30;;;;;;4952781;28;46468;-69
2023/12/14 00:32:55;;;;;;;2.67;1.20;;;6.70;67.60;;;;;;4954916;28;46574;-69
2023/12/14 00:35:21;;;;;;;2.10;1.10;;;6.70;67.80;;;;;;4951043;28;46325;-69
2023/12/14 00:37:46;;;;;;;2.03;1.13;;;6.60;67.90;;;;;;4948881;28;46531;-69
2023/12/14 00:40:12;;;;;;;3.13;1.00;;;6.60;68.20;;;;;;4953088;28;46451;-69
2023/12/14 00:42:38;;;;;;;1.80;1.00;;;6.50;68.60;;;;;;4948326;28;46503;-69
2023/12/14 00:45:03;;;;;;;5.00;1.50;;;6.40;69.00;;;;;;4950421;28;46716;-68
2023/12/14 00:47:29;;;;;;;2.30;1.30;;;6.40;69.50;;;;;;4951826;28;46469;-69
2023/12/14 00:49:55;;;;;;;1.97;1.20;;;6.40;69.80;;;;;;4950964;28;46476;-69
2023/12/14 00:52:20;;;;;;;3.10;1.30;;;6.30;70.10;;;;;;4953331;28;46774;-69
2023/12/14 00:54:46;;;;;;;1.70;1.10;;;6.30;70.30;;;;;;4949961;28;46474;-69
2023/12/14 00:57:11;;;;;;;2.40;1.23;;;6.30;70.40;;;;;;4949188;28;46581;-69
2023/12/14 00:59:37;;;;;;;1.63;0.97;;;6.30;70.50;;;;;;4949658;28;46426;-69
2023/12/14 01:02:02;;;;;;;1.53;0.90;;;6.30;70.50;;;;;;4949623;28;47007;-69
2023/12/14 01:04:28;;;;;;;2.00;1.03;;;6.30;70.70;;;;;;4951662;28;46414;-69
2023/12/14 01:06:54;;;;;;;1.20;0.80;;;6.30;70.60;;;;;;4948358;28;46516;-69
2023/12/14 01:09:19;;;;;;;1.43;0.90;;;6.20;70.70;;;;;;4952041;28;46477;-69
2023/12/14 01:11:45;;;;;;;4.80;1.00;;;6.20;71.90;;;;;;4951900;28;46439;-69
2023/12/14 01:14:11;;;;;;;1.50;0.90;;;6.20;70.90;;;;;;4951147;28;46550;-69
2023/12/14 01:16:36;;;;;;;1.40;0.90;;;6.20;70.70;;;;;;4952560;28;46688;-70
2023/12/14 01:19:02;;;;;;;1.77;1.17;;;6.20;71.00;;;;;;4953329;28;45945;-69
2023/12/14 01:21:27;;;;;;;5.80;0.93;;;6.20;70.80;;;;;;4949525;28;46493;-70
2023/12/14 01:23:53;;;;;;;2.27;1.37;;;6.20;70.70;;;;;;4949069;28;46606;-70
2023/12/14 01:26:19;;;;;;;2.23;1.13;;;6.20;70.60;;;;;;4946425;28;46743;-70
2023/12/14 01:28:44;;;;;;;2.10;1.40;;;6.20;70.50;;;;;;4948900;28;46426;-69
2023/12/14 01:31:10;;;;;;;1.60;1.20;;;6.20;70.60;;;;;;4950498;28;46404;-69
2023/12/14 01:33:35;;;;;;;1.70;1.10;;;6.20;70.70;;;;;;4951126;28;46752;-69
2023/12/14 01:36:01;;;;;;;2.00;1.20;;;6.20;70.90;;;;;;4948770;28;46205;-69
2023/12/14 01:38:26;;;;;;;1.40;1.00;;;6.10;71.00;;;;;;4949100;28;46018;-70
2023/12/14 01:40:52;;;;;;;1.80;0.93;;;6.20;72.30;;;;;;4948659;28;47025;-70
2023/12/14 01:43:18;;;;;;;1.87;1.10;;;6.10;71.10;;;;;;4950265;28;46452;-69
2023/12/14 01:45:43;;;;;;;3.23;1.30;;;6.10;71.10;;;;;;4950188;28;46573;-70
2023/12/14 01:48:10;;;;;;;1.67;1.00;;;6.20;71.10;;;;;;4951817;28;46405;-69
2023/12/14 01:50:36;;;;;;;2.07;1.30;;;6.20;71.00;;;;;;4945824;28;46919;-69
2023/12/14 01:53:01;;;;;;;2.53;1.50;;;6.20;70.90;;;;;;4948904;28;46438;-69
2023/12/14 01:55:27;;;;;;;2.30;1.50;;;6.20;70.70;;;;;;4948651;28;46482;-69
2023/12/14 01:57:53;;;;;;;1.87;1.30;;;6.20;70.70;;;;;;4946815;28;46543;-69
2023/12/14 02:00:28;;;;;;;2.30;1.43;;;6.20;70.60;;;;;;4951177;28;46476;-69
2023/12/14 02:02:54;;;;;;;2.87;1.80;;;6.30;70.50;;;;;;4951983;28;46418;-69
2023/12/14 02:05:20;;;;;;;3.67;2.40;;;6.30;70.30;;;;;;4949758;28;46482;-69
2023/12/14 02:07:45;;;;;;;2.40;1.70;;;6.30;70.20;;;;;;4951074;28;46672;-69
2023/12/14 02:10:11;;;;;;;2.73;1.90;;;6.30;70.20;;;;;;4947551;28;47375;-69
2023/12/14 02:12:36;;;;;;;2.87;1.90;;;6.20;70.30;;;;;;4947722;28;46368;-69
2023/12/14 02:15:02;;;;;;;4.70;2.40;;;6.20;70.40;;;;;;4949731;28;46662;-68
2023/12/14 02:17:28;;;;;;;2.80;1.93;;;6.20;70.40;;;;;;4950343;28;46566;-69
2023/12/14 02:19:53;;;;;;;4.17;1.80;;;6.20;70.30;;;;;;4947150;28;46402;-68
2023/12/14 02:22:19;;;;;;;1.60;1.23;;;6.10;70.40;;;;;;4948975;28;46464;-68
2023/12/14 02:24:44;;;;;;;2.70;1.47;;;6.10;70.80;;;;;;4951907;28;46432;-69
2023/12/14 02:27:10;;;;;;;2.37;1.40;;;6.00;71.10;;;;;;4950823;28;46531;-70
2023/12/14 02:29:35;;;;;;;2.10;1.40;;;5.90;71.40;;;;;;4951754;28;46429;-69
2023/12/14 02:32:01;;;;;;;2.00;1.50;;;5.90;71.70;;;;;;4947836;28;46469;-69
2023/12/14 02:34:26;;;;;;;1.70;1.10;;;5.90;71.80;;;;;;4949229;28;46753;-69
2023/12/14 02:36:52;;;;;;;2.20;1.50;;;5.80;71.80;;;;;;4948402;28;46482;-70
2023/12/14 02:39:18;;;;;;;2.27;1.40;;;5.70;72.20;;;;;;4948555;28;47470;-70
2023/12/14 02:41:43;;;;;;;1.83;1.13;;;5.70;72.30;;;;;;4949099;28;46484;-69
2023/12/14 02:44:09;;;;;;;2.83;1.10;;;5.70;72.30;;;;;;4952396;28;46536;-68
2023/12/14 02:46:34;;;;;;;2.00;1.23;;;5.60;72.50;;;;;;4949947;28;45924;-69
2023/12/14 02:49:00;;;;;;;2.50;1.30;;;5.50;72.70;;;;;;4948406;28;47255;-69
2023/12/14 02:51:26;;;;;;;1.20;0.80;;;5.50;72.90;;;;;;4951819;28;45887;-69
2023/12/14 02:53:51;;;;;;;1.30;0.90;;;5.50;72.80;;;;;;4947467;28;46625;-69
2023/12/14 02:56:17;;;;;;;2.70;0.90;;;5.60;73.80;;;;;;4948118;28;46448;-69
2023/12/14 02:58:42;;;;;;;1.30;0.90;;;5.50;72.40;;;;;;4954994;28;48035;-69
2023/12/14 03:01:08;;;;;;;3.20;1.10;;;5.60;72.20;;;;;;4947090;28;46399;-69
2023/12/14 03:03:33;;;;;;;4.60;1.13;;;5.70;71.60;;;;;;4949485;28;45889;-69
2023/12/14 03:05:59;;;;;;;1.23;0.80;;;5.80;71.10;;;;;;4950879;28;46656;-69
2023/12/14 03:08:24;;;;;;;2.10;1.10;;;5.90;70.60;;;;;;4948740;28;47104;-69
2023/12/14 03:10:50;;;;;;;2.70;1.30;;;6.00;70.30;;;;;;4951794;28;45819;-69
2023/12/14 03:13:15;;;;;;;1.70;1.33;;;6.00;70.00;;;;;;4947619;28;46567;-69
2023/12/14 03:15:43;;;;;;;2.50;1.40;;;6.10;69.70;;;;;;4949575;28;46719;-67
2023/12/14 03:18:08;;;;;;;1.80;1.30;;;6.10;69.60;;;;;;4948164;28;46724;-70
2023/12/14 03:20:34;;;;;;;2.70;1.47;;;6.20;69.50;;;;;;4946650;28;46465;-68
2023/12/14 03:22:59;;;;;;;3.90;1.40;;;6.20;69.50;;;;;;4946760;28;46690;-68
2023/12/14 03:25:25;;;;;;;2.83;1.23;;;6.20;69.50;;;;;;4949790;28;46394;-69
2023/12/14 03:27:50;;;;;;;1.60;1.30;;;6.20;69.50;;;;;;4949498;28;46474;-69
2023/12/14 03:30:16;;;;;;;2.13;1.13;;;6.20;69.40;;;;;;4946813;28;46504;-69
2023/12/14 03:32:42;;;;;;;2.00;1.30;;;6.20;69.40;;;;;;4952135;28;45939;-69
2023/12/14 03:35:08;;;;;;;2.37;1.10;;;6.30;69.40;;;;;;4949714;28;46542;-70
2023/12/14 03:37:34;;;;;;;2.13;1.30;;;6.30;69.30;;;;;;4949186;28;47211;-69
2023/12/14 03:39:59;;;;;;;1.70;1.20;;;6.30;69.40;;;;;;4947509;28;46386;-68
2023/12/14 03:42:25;;;;;;;2.30;1.23;;;6.20;69.50;;;;;;4947931;28;46473;-69
2023/12/14 03:44:51;;;;;;;1.73;1.10;;;6.20;69.40;;;;;;4951052;28;46267;-69
2023/12/14 03:47:16;;;;;;;2.23;1.00;;;6.30;69.40;;;;;;4948814;28;46653;-69
2023/12/14 03:49:42;;;;;;;1.60;1.10;;;6.30;69.30;;;;;;4950908;28;46890;-69
2023/12/14 03:52:09;;;;;;;1.90;1.20;;;6.30;69.30;;;;;;4946085;28;46765;-68
2023/12/14 03:54:35;;;;;;;1.83;1.03;;;6.40;69.30;;;;;;4951959;28;46378;-68
2023/12/14 03:57:00;;;;;;;3.03;1.17;;;6.40;69.10;;;;;;4951059;28;46241;-69
2023/12/14 03:59:26;;;;;;;1.40;0.90;;;6.40;69.00;;;;;;4951963;28;46417;-68
2023/12/14 04:01:51;;;;;;;1.67;1.13;;;6.50;68.90;;;;;;4951045;28;46496;-69
2023/12/14 04:04:17;;;;;;;2.20;1.40;;;6.50;68.90;;;;;;4951654;28;46482;-69
2023/12/14 04:06:42;;;;;;;4.33;1.50;;;6.50;68.80;;;;;;4953875;28;46393;-69
2023/12/14 04:09:08;;;;;;;1.60;1.20;;;6.60;68.80;;;;;;4950438;28;46282;-69
2023/12/14 04:11:33;;;;;;;2.70;1.20;;;6.60;68.80;;;;;;4952652;28;46463;-69
2023/12/14 04:13:59;;;;;;;2.00;1.30;;;6.60;68.70;;;;;;4953267;28;46540;-69
2023/12/14 04:16:24;;;;;;;3.33;1.43;;;6.60;68.60;;;;;;4948647;28;46477;-69
2023/12/14 04:18:50;;;;;;;3.07;1.47;;;6.70;68.60;;;;;;4953103;28;46677;-69
2023/12/14 04:21:15;;;;;;;2.23;1.53;;;6.70;68.60;;;;;;4953701;28;46494;-69
2023/12/14 04:23:41;;;;;;;9.70;1.70;;;6.60;68.70;;;;;;4954825;28;46634;-69
2023/12/14 04:26:09;;;;;;;4.03;1.97;;;6.60;68.80;;;;;;4951844;28;46430;-69
2023/12/14 04:28:35;;;;;;;2.77;1.60;;;6.50;69.00;;;;;;4951830;28;47339;-69
2023/12/14 04:31:00;;;;;;;2.97;2.00;;;6.60;69.10;;;;;;4951416;28;45856;-69
2023/12/14 04:33:26;;;;;;;2.87;1.87;;;6.60;69.00;;;;;;4950561;28;45911;-69
2023/12/14 04:35:52;;;;;;;3.07;1.67;;;6.60;69.00;;;;;;4950209;28;46481;-69
2023/12/14 04:38:18;;;;;;;5.43;1.47;;;6.70;69.00;;;;;;4949613;28;46815;-69
2023/12/14 04:40:43;;;;;;;4.00;1.57;;;6.60;69.00;;;;;;4970313;22;46516;-69
2023/12/14 04:43:09;;;;;;;2.07;1.47;;;6.50;69.00;;;;;;5007209;28;46497;-70
2023/12/14 04:45:35;;;;;;;2.40;1.30;;;6.50;69.20;;;;;;5005356;28;46394;-71
2023/12/14 04:48:00;;;;;;;4.93;1.50;;;6.50;69.30;;;;;;4983436;28;46430;-71
2023/12/14 04:50:27;;;;;;;2.57;1.30;;;6.50;69.40;;;;;;4969176;28;46575;-68
2023/12/14 04:52:53;;;;;;;3.30;1.40;;;6.60;70.50;;;;;;4971828;28;46582;-70
2023/12/14 04:55:19;;;;;;;6.13;1.40;;;6.60;69.00;;;;;;4972668;28;47024;-71
2023/12/14 04:57:46;;;;;;;1.87;1.10;;;6.60;68.80;;;;;;4970909;28;46373;-70
2023/12/14 05:00:12;;;;;;;7.63;1.40;;;6.70;69.00;;;;;;4968067;28;46429;-71
2023/12/14 05:02:38;;;;;;;2.33;1.60;;;6.70;68.80;;;;;;4967627;28;46503;-70
2023/12/14 05:05:04;;;;;;;2.07;1.30;;;6.70;68.70;;;;;;4968601;28;46375;-70
2023/12/14 05:07:30;;;;;;;2.40;1.47;;;6.70;68.80;;;;;;4971839;28;46387;-69
2023/12/14 05:09:56;;;;;;;4.43;1.50;;;6.70;68.80;;;;;;4976392;28;46504;-70
2023/12/14 05:12:22;;;;;;;4.83;1.97;;;6.70;68.60;;;;;;4969971;28;46436;-70
2023/12/14 05:14:47;;;;;;;2.17;1.50;;;6.70;68.70;;;;;;4970106;28;46449;-71
2023/12/14 05:17:13;;;;;;;3.00;1.67;;;6.70;68.80;;;;;;4969306;28;46425;-69
2023/12/14 05:19:38;;;;;;;3.30;2.13;;;6.70;68.80;;;;;;4972387;28;46496;-70
2023/12/14 05:22:04;;;;;;;3.97;1.70;;;6.70;68.50;;;;;;4970479;28;46574;-71
2023/12/14 05:24:29;;;;;;;5.40;1.60;;;6.70;68.50;;;;;;4969991;28;47201;-71
2023/12/14 05:26:55;;;;;;;2.80;1.60;;;6.80;68.50;;;;;;4973748;28;46478;-70
2023/12/14 05:29:21;;;;;;;6.37;2.00;;;6.70;68.50;;;;;;4971789;28;46437;-70
2023/12/14 05:31:47;;;;;;;3.77;2.10;;;6.70;68.60;;;;;;4971041;28;46428;-70
2023/12/14 05:34:14;;;;;;;4.07;2.30;;;6.70;68.80;;;;;;4967026;28;46442;-70
2023/12/14 05:36:39;;;;;;;3.80;2.27;;;6.70;68.80;;;;;;4970543;28;46393;-70
2023/12/14 05:39:05;;;;;;;4.00;2.00;;;6.60;68.80;;;;;;4969956;28;46455;-70
2023/12/14 05:41:30;;;;;;;3.07;2.37;;;6.60;68.90;;;;;;4963888;28;46993;-71
2023/12/14 05:43:56;;;;;;;3.87;2.33;;;6.60;69.00;;;;;;4969366;28;46818;-71
2023/12/14 05:46:23;;;;;;;8.23;3.00;;;6.60;69.00;;;;;;4969808;28;46407;-71
2023/12/14 05:48:49;;;;;;;4.63;3.20;;;6.60;69.00;;;;;;4970100;28;46830;-71
2023/12/14 05:51:26;;;;;;;5.50;3.50;;;6.60;68.80;;;;;;4968185;28;45897;-71
2023/12/14 05:53:52;;;;;;;4.63;2.97;;;6.60;68.80;;;;;;4969163;28;47158;-71
2023/12/14 05:56:18;;;;;;;5.37;3.53;;;6.60;69.10;;;;;;4970225;28;46413;-70
2023/12/14 05:58:43;;;;;;;4.23;3.27;;;6.50;69.10;;;;;;4976051;28;46498;-71
2023/12/14 06:01:09;;;;;;;5.20;3.50;;;6.50;69.00;;;;;;4969304;28;46607;-70
2023/12/14 06:03:34;;;;;;;5.23;3.20;;;6.50;68.90;;;;;;4968977;28;46394;-71
2023/12/14 06:06:00;;;;;;;6.40;3.90;;;6.50;68.80;;;;;;4970797;28;45915;-71
2023/12/14 06:08:25;;;;;;;6.20;3.40;;;6.60;68.70;;;;;;4966839;28;46456;-71
2023/12/14 06:10:51;;;;;;;6.70;3.60;;;6.60;68.80;;;;;;4968720;28;46539;-71
2023/12/14 06:13:16;;;;;;;6.70;3.70;;;6.60;68.70;;;;;;4966090;28;46602;-71
2023/12/14 06:15:42;;;;;;;6.97;4.27;;;6.60;68.70;;;;;;4967356;28;46697;-69
2023/12/14 06:18:07;;;;;;;8.17;4.93;;;6.60;68.70;;;;;;4967398;28;45850;-71
2023/12/14 06:20:33;;;;;;;8.70;4.70;;;6.50;68.70;;;;;;4967715;28;46533;-71
2023/12/14 06:22:58;;;;;;;6.70;4.77;;;6.50;70.00;;;;;;4967819;28;46525;-71
2023/12/14 06:25:24;;;;;;;7.67;4.73;;;6.50;68.80;;;;;;4967407;28;46467;-70
2023/12/14 06:27:50;;;;;;;8.47;5.10;;;6.50;68.80;;;;;;4966669;28;45959;-71
2023/12/14 06:30:15;;;;;;;9.20;5.40;;;6.60;68.90;;;;;;4966618;28;46408;-70
2023/12/14 06:32:41;;;;;;;8.90;5.87;;;6.60;68.70;;;;;;4966314;28;46468;-71
2023/12/14 06:35:07;;;;;;;12.30;9.10;;;6.60;68.80;;;;;;4969194;28;46372;-71
2023/12/14 06:37:32;;;;;;;10.57;6.80;;;6.60;68.60;;;;;;4967946;28;46515;-71
2023/12/14 06:39:58;;;;;;;11.30;6.37;;;6.70;68.70;;;;;;4968675;28;46630;-71
2023/12/14 06:42:27;;;;;;;10.43;7.10;;;6.70;68.50;;;;;;4966906;28;46546;-70
2023/12/14 06:44:53;;;;;;;9.77;6.67;;;6.70;68.70;;;;;;4969114;28;46428;-71
2023/12/14 06:47:19;;;;;;;12.50;7.20;;;6.70;68.80;;;;;;4971369;28;46489;-73
2023/12/14 06:49:44;;;;;;;11.90;7.33;;;6.70;68.70;;;;;;4967616;28;46481;-71
2023/12/14 06:52:10;;;;;;;10.53;6.97;;;6.70;68.80;;;;;;4966737;28;46443;-71
2023/12/14 06:54:36;;;;;;;13.17;6.93;;;6.80;68.70;;;;;;4966482;28;46532;-71
2023/12/14 06:57:04;;;;;;;10.50;6.93;;;6.80;68.70;;;;;;4969635;28;46475;-69
2023/12/14 06:59:29;;;;;;;10.73;6.97;;;6.80;68.70;;;;;;4969372;28;46668;-71
2023/12/14 07:01:55;;;;;;;9.90;6.80;;;6.80;68.60;;;;;;4967859;28;49168;-70
2023/12/14 07:04:21;;;;;;;11.40;7.87;;;6.80;68.70;;;;;;4967170;28;46407;-70
2023/12/14 07:06:53;;;;;;;12.40;7.03;;;6.80;68.90;;;;;;4967145;28;46398;-69
2023/12/14 07:09:19;;;;;;;11.37;6.70;;;6.70;69.00;;;;;;4968184;28;46675;-69
2023/12/14 07:11:44;;;;;;;11.50;8.10;;;6.60;69.50;;;;;;4964968;28;47821;-70
2023/12/14 07:14:10;;;;;;;18.30;8.10;;;6.50;69.90;;;;;;4968142;28;45797;-70
2023/12/14 07:16:36;;;;;;;13.77;8.50;;;6.50;70.10;;;;;;4966787;28;46442;-69
2023/12/14 07:19:02;;;;;;;13.40;7.90;;;6.50;69.70;;;;;;4969232;28;46668;-69
2023/12/14 07:21:27;;;;;;;14.20;8.00;;;6.70;69.50;;;;;;4968041;28;46464;-70
2023/12/14 07:23:53;;;;;;;10.17;7.43;;;6.70;69.10;;;;;;4966292;28;46408;-70
2023/12/14 07:26:18;;;;;;;14.80;8.40;;;6.90;68.90;;;;;;4968843;28;46394;-70
2023/12/14 07:28:44;;;;;;;14.53;8.17;;;6.90;68.70;;;;;;4962501;28;46923;-70
2023/12/14 07:31:10;;;;;;;14.33;8.30;;;7.00;68.60;;;;;;4968317;28;46748;-69
2023/12/14 07:33:36;;;;;;;11.77;8.57;;;7.00;68.50;;;;;;4968434;28;45844;-70
2023/12/14 07:36:01;;;;;;;14.53;8.33;;;7.10;68.30;;;;;;4966638;28;46460;-70
2023/12/14 07:38:27;;;;;;;17.70;8.93;;;7.10;68.20;;;;;;4969338;28;46784;-70
2023/12/14 07:40:53;;;;;;;11.27;7.93;;;7.20;68.30;;;;;;4969951;28;47284;-70
2023/12/14 07:43:18;;;;;;;12.70;8.87;;;7.20;68.30;;;;;;4971890;28;45885;-70
2023/12/14 07:45:45;;;;;;;11.50;8.77;;;7.20;68.40;;;;;;4972367;28;46551;-71
2023/12/14 07:48:11;;;;;;;19.17;11.97;;;7.20;68.30;;;;;;4968892;28;46702;-71
2023/12/14 07:50:36;;;;;;;13.50;9.03;;;7.30;68.20;;;;;;4966854;28;46452;-71
2023/12/14 07:53:02;;;;;;;16.10;8.30;;;7.30;68.20;;;;;;4966567;28;46434;-71
2023/12/14 07:55:28;;;;;;;13.27;8.27;;;7.40;68.30;;;;;;4969189;28;46472;-70
2023/12/14 07:57:54;;;;;;;12.60;8.30;;;7.40;68.10;;;;;;4968072;28;46602;-71
2023/12/14 08:00:20;;;;;;;12.37;8.30;;;7.40;68.10;;;;;;4970581;28;47212;-71
2023/12/14 08:02:45;;;;;;;10.63;7.53;;;7.50;68.10;;;;;;4969820;28;46333;-71
2023/12/14 08:05:11;;;;;;;13.30;7.93;;;7.40;68.20;;;;;;4968398;28;46517;-71
2023/12/14 08:07:37;;;;;;;14.20;8.40;;;7.40;68.40;;;;;;4967329;28;46465;-71
2023/12/14 08:10:03;;;;;;;13.93;8.40;;;7.30;68.50;;;;;;4969602;28;46521;-71
2023/12/14 08:12:28;;;;;;;18.50;9.03;;;7.30;68.70;;;;;;4971674;28;46634;-70
2023/12/14 08:14:54;;;;;;;11.97;8.80;;;7.30;68.70;;;;;;4969786;28;46638;-72
2023/12/14 08:17:20;;;;;;;15.43;9.33;;;7.50;68.70;;;;;;4967876;28;46576;-71
2023/12/14 08:19:46;;;;;;;12.57;8.60;;;7.40;68.50;;;;;;4968310;28;46379;-69
2023/12/14 08:22:12;;;;;;;11.27;8.00;;;7.40;68.60;;;;;;4969265;28;46659;-71
2023/12/14 08:24:44;;;;;;;12.07;8.33;;;7.50;68.50;;;;;;4969252;28;46402;-71
2023/12/14 08:27:10;;;;;;;11.30;8.03;;;7.50;68.40;;;;;;4969198;28;46723;-71
2023/12/14 08:29:35;;;;;;;11.87;8.17;;;7.50;68.50;;;;;;4968350;28;46471;-71
2023/12/14 08:32:01;;;;;;;11.73;7.60;;;7.50;68.60;;;;;;4966946;28;46508;-71
2023/12/14 08:34:27;;;;;;;9.07;6.80;;;7.60;68.70;;;;;;4970623;28;45840;-69
2023/12/14 08:36:53;;;;;;;7.90;6.60;;;7.50;68.50;;;;;;4971065;28;46623;-71
2023/12/14 08:39:19;;;;;;;8.30;6.50;;;7.50;68.60;;;;;;4968707;28;46507;-71
2023/12/14 08:41:46;;;;;;;11.37;7.27;;;7.50;68.50;;;;;;4969256;28;46640;-70
2023/12/14 08:44:13;;;;;;;7.50;5.80;;;7.60;68.50;;;;;;4968510;28;46764;-70
2023/12/14 08:46:40;;;;;;;10.57;6.53;;;7.70;68.40;;;;;;4971862;28;46864;-70
2023/12/14 08:49:06;;;;;;;8.77;6.30;;;7.70;68.30;;;;;;4965758;28;47918;-70
2023/12/14 08:51:31;;;;;;;9.37;6.77;;;7.80;68.20;;;;;;4970402;28;46421;-71
2023/12/14 08:53:57;;;;;;;6.87;5.47;;;7.90;68.00;;;;;;4969668;28;46446;-71
2023/12/14 08:56:22;;;;;;;6.80;5.43;;;8.00;67.80;;;;;;4973364;28;46439;-71
2023/12/14 08:58:48;;;;;;;7.77;5.40;;;8.10;67.70;;;;;;4966573;28;46383;-71
2023/12/14 09:01:21;;;;;;;8.00;5.50;;;8.00;67.70;;;;;;4968412;28;46460;-71
2023/12/14 09:03:46;;;;;;;7.80;5.63;;;7.90;68.30;;;;;;4970496;28;45880;-70
2023/12/14 09:06:12;;;;;;;7.17;5.03;;;7.80;68.80;;;;;;4967617;28;46353;-71
2023/12/14 09:08:39;;;;;;;7.97;5.87;;;7.70;69.20;;;;;;4967553;28;46460;-70
2023/12/14 09:11:05;;;;;;;8.20;5.73;;;7.60;69.40;;;;;;4967750;28;46736;-71
2023/12/14 09:13:30;;;;;;;8.00;5.77;;;7.60;69.40;;;;;;4971281;28;46407;-72
2023/12/14 09:15:56;;;;;;;7.00;5.03;;;7.60;69.30;;;;;;4968999;28;46429;-72
2023/12/14 09:18:22;;;;;;;9.07;5.40;;;7.70;69.30;;;;;;4970324;28;46573;-71
2023/12/14 09:20:49;;;;;;;10.53;4.90;;;7.60;69.30;;;;;;4968707;28;46558;-70
2023/12/14 09:23:19;;;;;;;10.13;5.77;;;7.50;69.50;;;;;;4971156;28;46408;-71
2023/12/14 09:25:45;;;;;;;8.37;6.10;;;7.50;69.90;;;;;;4971259;28;46491;-70
2023/12/14 09:28:11;;;;;;;8.67;5.57;;;7.50;69.90;;;;;;4968266;28;47047;-71
2023/12/14 09:30:36;;;;;;;11.63;6.07;;;7.40;70.10;;;;;;4966667;28;46414;-70
2023/12/14 09:33:02;;;;;;;8.63;4.00;;;7.40;70.30;;;;;;4967448;28;46794;-69
2023/12/14 09:35:27;;;;;;;9.83;4.20;;;7.30;70.30;;;;;;4968416;28;45966;-71
2023/12/14 09:37:53;;;;;;;5.17;4.00;;;7.20;70.50;;;;;;4968642;28;46377;-67
2023/12/14 09:40:19;;;;;;;4.50;3.30;;;7.10;70.50;;;;;;4968325;28;46843;-67
2023/12/14 09:42:45;;;;;;;6.43;3.97;;;7.10;70.50;;;;;;4965909;28;46371;-64
2023/12/14 09:45:11;;;;;;;5.80;3.57;;;7.10;70.30;;;;;;4964872;28;46718;-68
2023/12/14 09:47:37;;;;;;;6.30;4.27;;;7.10;70.20;;;;;;4967665;28;46551;-70
2023/12/14 09:50:04;;;;;;;5.80;4.10;;;7.10;70.50;;;;;;4965745;28;46398;-68
2023/12/14 09:52:30;;;;;;;5.70;3.80;;;7.10;70.50;;;;;;4963734;28;46827;-71
2023/12/14 09:54:56;;;;;;;5.07;3.50;;;7.10;70.50;;;;;;4965808;28;46452;-70
2023/12/14 09:57:22;;;;;;;6.50;3.10;;;7.20;70.40;;;;;;4968942;28;47168;-70
2023/12/14 09:59:55;;;;;;;6.10;3.03;;;7.20;70.20;;;;;;4968011;28;46683;-64
2023/12/14 10:02:27;;;;;;;4.33;2.87;;;7.30;70.10;;;;;;4968642;28;46726;-63
2023/12/14 10:04:53;;;;;;;5.57;2.83;;;7.20;70.00;;;;;;4968714;28;46638;-65
2023/12/14 10:07:21;;;;;;;4.40;2.47;;;7.30;70.10;;;;;;4966928;28;47267;-65
2023/12/14 10:09:47;;;;;;;2.53;1.73;;;7.30;70.00;;;;;;4967377;28;46699;-69
2023/12/14 10:12:12;;;;;;;2.67;1.67;;;7.30;69.90;;;;;;4964450;28;46497;-70
2023/12/14 10:14:38;;;;;;;3.90;1.70;;;7.30;69.70;;;;;;4965413;28;46472;-70
2023/12/14 10:17:16;;;;;;;2.80;1.30;;;7.30;69.60;;;;;;4965694;28;46522;-71
2023/12/14 10:19:46;;;;;;;2.30;1.40;;;7.30;69.60;;;;;;4969600;28;46504;-72
2023/12/14 10:22:15;;;;;;;2.70;1.63;;;7.50;69.20;;;;;;4965224;28;46527;-71
2023/12/14 10:24:43;;;;;;;1.50;1.00;;;7.50;69.00;;;;;;4964222;28;46714;-72
2023/12/14 10:27:08;;;;;;;1.37;0.90;;;7.60;68.70;;;;;;4965381;28;46504;-71
2023/12/14 10:29:35;;;;;;;1.33;0.90;;;7.70;68.70;;;;;;4968780;28;46676;-71
2023/12/14 10:32:06;;;;;;;1.60;1.20;;;7.70;68.50;;;;;;4966685;28;46945;-69
2023/12/14 10:34:41;;;;;;;1.50;0.93;;;7.70;68.50;;;;;;4968923;28;46491;-71
2023/12/14 10:37:07;;;;;;;1.70;1.00;;;7.70;68.40;;;;;;4965631;28;48130;-72
2023/12/14 10:39:35;;;;;;;1.60;0.90;;;7.70;68.50;;;;;;4967885;28;46251;-72
2023/12/14 10:42:03;;;;;;;1.57;0.80;;;7.60;68.50;;;;;;4964651;28;46673;-72
2023/12/14 10:44:34;;;;;;;2.87;1.00;;;7.70;68.40;;;;;;4963635;28;46433;-72
2023/12/14 10:47:00;;;;;;;1.77;1.00;;;7.70;68.10;;;;;;4965921;28;46698;-72
2023/12/14 10:49:26;;;;;;;1.83;1.00;;;7.80;68.20;;;;;;4970338;28;46191;-71
2023/12/14 10:51:57;;;;;;;5.63;0.90;;;7.80;68.20;;;;;;4964676;28;46593;-71
2023/12/14 10:54:25;;;;;;;1.30;0.80;;;7.70;68.20;;;;;;4965736;28;46473;-72
2023/12/14 10:56:56;;;;;;;1.47;0.90;;;7.70;68.20;;;;;;4966813;28;47357;-71
2023/12/14 10:59:21;;;;;;;1.10;0.73;;;7.60;68.10;;;;;;4968433;28;46460;-72
2023/12/14 11:01:53;;;;;;;1.60;0.90;;;7.70;68.20;;;;;;4966293;28;46476;-71
2023/12/14 11:04:19;;;;;;;2.60;1.10;;;7.80;67.90;;;;;;4963543;28;46484;-72
2023/12/14 11:06:48;;;;;;;1.60;1.00;;;7.80;67.70;;;;;;4965959;28;46721;-71
2023/12/14 11:09:16;;;;;;;2.00;1.10;;;7.80;67.60;;;;;;4963117;28;46409;-71
2023/12/14 11:11:47;;;;;;;1.57;0.93;;;7.90;67.50;;;;;;4973831;28;46466;-71
2023/12/14 11:14:13;;;;;;;2.23;1.00;;;8.00;67.40;;;;;;4966625;28;46562;-71
2023/12/14 11:16:48;;;;;;;1.40;0.90;;;8.00;67.00;;;;;;4968310;28;46014;-71
2023/12/14 11:19:23;;;;;;;1.83;1.20;;;8.00;66.90;;;;;;4967333;28;46495;-72
2023/12/14 11:21:59;;;;;;;1.30;0.90;;;7.90;67.00;;;;;;4966037;28;45887;-70
2023/12/14 11:24:25;;;;;;;1.60;0.90;;;8.20;66.90;;;;;;4968177;28;46778;-71
2023/12/14 11:26:52;;;;;;;5.27;1.13;;;8.20;66.40;;;;;;4966945;28;46573;-71
2023/12/14 11:29:19;;;;;;;3.83;1.10;;;8.30;66.20;;;;;;4972202;28;46619;-72
2023/12/14 11:31:45;;;;;;;2.10;1.13;;;8.50;66.00;;;;;;4964838;28;46403;-71
2023/12/14 11:34:11;;;;;;;1.50;0.90;;;8.70;65.80;;;;;;4963933;28;46567;-71
2023/12/14 11:36:41;;;;;;;2.67;0.97;;;8.80;65.50;;;;;;4966799;28;46566;-71
2023/12/14 11:39:07;;;;;;;3.70;0.97;;;9.00;65.10;;;;;;4966345;28;46476;-70
2023/12/14 11:41:34;;;;;;;2.20;1.07;;;9.20;64.70;;;;;;4966702;28;46490;-71
2023/12/14 11:43:59;;;;;;;1.30;0.90;;;9.50;65.00;;;;;;4964779;28;46636;-71
2023/12/14 11:46:25;;;;;;;4.23;1.40;;;9.40;64.30;;;;;;4967445;28;46612;-72
2023/12/14 11:48:51;;;;;;;1.80;1.10;;;9.20;64.70;;;;;;4968130;28;46991;-70
2023/12/14 11:51:17;;;;;;;2.90;1.00;;;9.00;64.60;;;;;;4964529;28;46484;-72
2023/12/14 11:53:50;;;;;;;1.67;0.80;;;8.80;64.80;;;;;;4967463;28;46592;-71
2023/12/14 11:56:18;;;;;;;2.30;1.10;;;8.70;65.20;;;;;;4965171;28;46995;-71
2023/12/14 11:58:45;;;;;;;2.00;1.00;;;8.80;65.10;;;;;;4966245;28;46595;-70
2023/12/14 12:01:18;;;;;;;3.63;1.10;;;8.80;64.40;;;;;;4964696;28;46413;-70
2023/12/14 12:03:45;;;;;;;1.60;0.93;;;8.80;64.50;;;;;;4964430;28;46441;-72
2023/12/14 12:06:24;;;;;;;1.50;0.90;;;8.90;64.70;;;;;;4966035;28;47107;-70
2023/12/14 12:08:51;;;;;;;3.40;1.20;;;8.80;64.40;;;;;;4965591;28;46357;-71
2023/12/14 12:11:22;;;;;;;1.50;1.00;;;8.60;64.50;;;;;;4964206;28;46379;-72
2023/12/14 12:13:52;;;;;;;2.07;1.10;;;8.50;64.80;;;;;;4964263;28;46689;-71
2023/12/14 12:16:18;;;;;;;4.43;1.33;;;8.50;64.70;;;;;;4967117;28;46978;-71
2023/12/14 12:18:43;;;;;;;1.80;1.10;;;8.40;64.70;;;;;;4969825;28;46443;-71
2023/12/14 12:21:10;;;;;;;1.80;1.10;;;8.30;64.80;;;;;;4967952;28;46563;-72
2023/12/14 12:23:36;;;;;;;1.50;1.00;;;8.30;64.90;;;;;;4968261;28;46629;-72
2023/12/14 12:26:02;;;;;;;2.80;1.80;;;8.30;65.20;;;;;;4965910;28;46449;-72
2023/12/14 12:28:28;;;;;;;2.40;1.40;;;8.30;65.10;;;;;;4967119;28;46482;-72
2023/12/14 12:30:54;;;;;;;2.43;1.50;;;8.30;65.10;;;;;;4971087;28;46519;-71
2023/12/14 12:33:21;;;;;;;3.00;1.80;;;8.30;65.20;;;;;;4968685;28;46363;-71
2023/12/14 12:35:46;;;;;;;2.40;1.70;;;8.30;65.30;;;;;;4967962;28;46463;-71
2023/12/14 12:38:12;;;;;;;2.37;1.60;;;8.40;65.20;;;;;;4966972;28;46508;-71
2023/12/14 12:40:38;;;;;;;2.57;1.60;;;8.50;65.00;;;;;;4969495;28;46645;-71
2023/12/14 12:43:04;;;;;;;2.90;2.03;;;8.50;64.70;;;;;;4969505;28;46752;-71
2023/12/14 12:45:29;;;;;;;3.40;2.00;;;8.40;65.00;;;;;;4970499;28;47016;-70
2023/12/14 12:47:55;;;;;;;4.07;2.43;;;8.30;65.00;;;;;;4970425;28;46182;-71
2023/12/14 12:50:20;;;;;;;6.50;2.50;;;8.20;65.10;;;;;;4967416;28;46489;-72